Terminal Aerodrome Forecast
Issued by NWS

Home | Current Version | Previous Version | Graphics & Text | Print | Product List | Glossary On
Versions: 1 2 3 4 5 6 7 8 9 10 11 12 13 14 15 16
000
FTUS43 KTOP 200912 AAB
TAFMHK
TAF AMD
KMHK 200912Z 2009/2106 36010G20KT P6SM VCTS SCT050CB BKN150
     FM201300 18007KT P6SM FEW250=

USA.gov is the U.S. government's official web portal to all federal, state and local government web resources and services.